WetterOnline ( http://www.wetteronline.de )

Wetter aktuell Braunschweig

Aktuelles Wetter: Wernigerode (240m)

6-stündlich | Neueste Meldungen
Ortszeit Temperatur Wetter
So, 21.10. 2:00 11.1° C bedeckt
Sa, 20.10. 20:00 9.7° C bedeckt
Sa, 20.10. 14:00 12.4° C bedeckt
Sa, 20.10. 8:00 1.6° C leicht bewölkt
Sa, 20.10. 2:00 5.6° C bewölkt
Fr, 19.10. 20:00 10.6° C bedeckt
Fr, 19.10. 14:00 11.4° C wolkig
Fr, 19.10. 8:00 9.2° C bedeckt
Ortszeit Temperatur Wetter
So, 21.10. 7:00 9.6° C bedeckt
So, 21.10. 6:50 9.6° C bedeckt
So, 21.10. 6:40 9.8° C bedeckt
So, 21.10. 6:30 9.7° C bewölkt
So, 21.10. 6:20 9.7° C bewölkt
So, 21.10. 6:10 9.6° C bewölkt
So, 21.10. 6:00 9.8° C bewölkt
So, 21.10. 5:30 10.0° C bedeckt
So, 21.10. 5:00 10.3° C bewölkt
So, 21.10. 4:30 10.3° C bedeckt
So, 21.10. 4:00 10.3° C bedeckt
Ortszeit Relative Feuchte Sichtweite
So, 21.10. 2:00 74% 22 km
Sa, 20.10. 20:00 73% 70 km
Sa, 20.10. 14:00 52% 45 km
Sa, 20.10. 8:00 96% 17 km
Sa, 20.10. 2:00 89% 45 km
Fr, 19.10. 20:00 73% 55 km
Fr, 19.10. 14:00 68% 65 km
Fr, 19.10. 8:00 81% 70 km
Ortszeit Relative Feuchte Sichtweite
So, 21.10. 7:00 88% 6 km
So, 21.10. 6:50 88% -
So, 21.10. 6:40 87% -
So, 21.10. 6:30 88% 7 km
So, 21.10. 6:20 88% -
So, 21.10. 6:10 89% -
So, 21.10. 6:00 88% 6 km
So, 21.10. 5:30 85% 9 km
So, 21.10. 5:00 82% 11 km
So, 21.10. 4:30 82% 11 km
So, 21.10. 4:00 80% 13 km
Ortszeit Niederschlagsmenge Niederschlagsart
So, 21.10. 2:00 0.0 l/m2 in 6 Std. -
Sa, 20.10. 20:00 0.0 l/m2 in 12 Std. -
Sa, 20.10. 14:00 0.0 l/m2 in 6 Std. -
Sa, 20.10. 8:00 0.0 l/m2 in 12 Std. -
Sa, 20.10. 2:00 0.0 l/m2 in 6 Std. -
Fr, 19.10. 20:00 0.0 l/m2 in 12 Std. -
Fr, 19.10. 14:00 0.0 l/m2 in 6 Std. -
Fr, 19.10. 8:00 0.1 l/m2 in 12 Std. Sprühregen
Ortszeit Niederschlagsmenge Niederschlagsart
So, 21.10. 7:00 0.0 l/m2 in 1 Std. -
So, 21.10. 6:50 keine Meldung -
So, 21.10. 6:40 keine Meldung -
So, 21.10. 6:30 0.0 l/m2 in 1 Std. -
So, 21.10. 6:20 keine Meldung -
So, 21.10. 6:10 keine Meldung -
So, 21.10. 6:00 0.0 l/m2 in 1 Std. -
So, 21.10. 5:30 0.0 l/m2 in 1 Std. -
So, 21.10. 5:00 0.0 l/m2 in 1 Std. -
So, 21.10. 4:30 0.0 l/m2 in 1 Std. -
So, 21.10. 4:00 0.0 l/m2 in 1 Std. -
Ortszeit Stärke Spitze Richtung
km/h Bft. km/h Grad Sektor
So, 21.10. 2:00 7 2 14 280° W
Sa, 20.10. 20:00 9 2 28 200° S
Sa, 20.10. 14:00 11 2 29 340° N
Sa, 20.10. 8:00 6 1 11 180° S
Sa, 20.10. 2:00 4 1 14 260° W
Fr, 19.10. 20:00 4 1 14 120° SO
Fr, 19.10. 14:00 7 2 17 70° O
Fr, 19.10. 8:00 4 1 14 170° S
Ortszeit Stärke Spitze Richtung
km/h Bft. km/h Grad Sektor
So, 21.10. 7:00 4 1 7 320° NW
So, 21.10. 6:50 4 1 - 320° NW
So, 21.10. 6:40 4 1 - 310° NW
So, 21.10. 6:30 4 1 7 300° NW
So, 21.10. 6:20 4 1 - 300° NW
So, 21.10. 6:10 4 1 - 310° NW
So, 21.10. 6:00 4 1 11 280° W
So, 21.10. 5:30 6 1 13 270° W
So, 21.10. 5:00 6 1 15 280° W
So, 21.10. 4:30 7 2 15 280° W
So, 21.10. 4:00 7 2 17 290° W
Ortszeit Untergrenze Bedeckung Gattung
total tief tief mittel hoch
So, 21.10. 2:00 660 m 8/8 8/8 - - -
Sa, 20.10. 20:00 900 m 8/8 8/8 - - -
Sa, 20.10. 14:00 1320 m 8/8 - - - -
Sa, 20.10. 8:00 1140 m 3/8 3/8 - - -
Sa, 20.10. 2:00 1380 m 7/8 7/8 - - -
Fr, 19.10. 20:00 930 m 8/8 8/8 - - -
Fr, 19.10. 14:00 1440 m 6/8 6/8 - - -
Fr, 19.10. 8:00 450 m 8/8 8/8 - - -
Ortszeit Bedeckungsgrad in Achtel und Wolkenuntergrenze
So, 21.10. 7:00 3(270m) 5(450m) 8(1140m)
So, 21.10. 6:50 3(270m) 5(450m) 8(1140m)
So, 21.10. 6:40 4(300m) 7(450m) 8(1110m)
So, 21.10. 6:30 5(330m) 7(510m) 8(9000m)
So, 21.10. 6:20 5(330m) 7(510m) 8(9000m)
So, 21.10. 6:10 4(300m) 7(510m) 8(9000m)
So, 21.10. 6:00 5(330m) 7(570m) 7(1200m)
So, 21.10. 5:30 7(300m) 7(690m) 8(1200m)
So, 21.10. 5:00 7(330m) 7(720m) 7(1200m)
So, 21.10. 4:30 8(390m) 8(750m) 8(1290m)
So, 21.10. 4:00 4(450m) 6(570m) 8(1320m)
Ortszeit Luftdruck NN (hPa) Tendenz (hPa in 3 Std.)
So, 21.10. 2:00 1030 - 0,6
Sa, 20.10. 20:00 1030 + 0,3
Sa, 20.10. 14:00 1030 - 0,2
Sa, 20.10. 8:00 1030 + 1,2
Sa, 20.10. 2:00 1027 0,0
Fr, 19.10. 20:00 1026 + 0,7
Fr, 19.10. 14:00 1026 - 0,8
Fr, 19.10. 8:00 1026 + 0,2
Ortszeit Luftdruck NN (hPa) Tendenz (hPa in 3 Std.)
So, 21.10. 7:00 1029 - 0,3
So, 21.10. 6:50 1029 keine Meldung
So, 21.10. 6:40 1030 keine Meldung
So, 21.10. 6:30 1029 - 0,4
So, 21.10. 6:20 1029 keine Meldung
So, 21.10. 6:10 1029 keine Meldung
So, 21.10. 6:00 1029 - 0,5
So, 21.10. 5:30 1029 - 0,6
So, 21.10. 5:00 1029 - 0,4
So, 21.10. 4:30 1030 - 0,3
So, 21.10. 4:00 1030 - 0,2
Ortszeit Schneehöhe (cm)
So, 21.10. 2:00 0
Sa, 20.10. 20:00 0
Sa, 20.10. 14:00 0
Sa, 20.10. 8:00 0
Sa, 20.10. 2:00 0
Fr, 19.10. 20:00 0
Fr, 19.10. 14:00 0
Fr, 19.10. 8:00 0
Ortszeit Schneehöhe (cm)
So, 21.10. 7:00 0
So, 21.10. 6:50 0
So, 21.10. 6:40 0
So, 21.10. 6:30 0
So, 21.10. 6:20 0
So, 21.10. 6:10 0
So, 21.10. 6:00 0
So, 21.10. 5:30 0
So, 21.10. 5:00 0
So, 21.10. 4:30 0
So, 21.10. 4:00 0
Link zu dieser Seite / Seite empfehlen

Das Wetter in ...